sensor_id;sensor_type;location;lat;lon;timestamp;temperature;humidity
7814;DHT22;3952;48.364;16.022;2023-03-04T00:00:03;1.10;99.90
7814;DHT22;3952;48.364;16.022;2023-03-04T00:02:31;1.10;99.90
7814;DHT22;3952;48.364;16.022;2023-03-04T00:04:59;1.10;99.90
7814;DHT22;3952;48.364;16.022;2023-03-04T00:07:28;1.10;99.90
7814;DHT22;3952;48.364;16.022;2023-03-04T00:09:55;1.00;99.90
7814;DHT22;3952;48.364;16.022;2023-03-04T00:12:22;1.00;99.90
7814;DHT22;3952;48.364;16.022;2023-03-04T00:14:49;1.00;99.90
7814;DHT22;3952;48.364;16.022;2023-03-04T00:17:17;0.90;99.90
7814;DHT22;3952;48.364;16.022;2023-03-04T00:19:44;0.80;99.90
7814;DHT22;3952;48.364;16.022;2023-03-04T00:22:13;0.80;99.90
7814;DHT22;3952;48.364;16.022;2023-03-04T00:24:40;0.80;99.90
7814;DHT22;3952;48.364;16.022;2023-03-04T00:27:07;0.80;99.90
7814;DHT22;3952;48.364;16.022;2023-03-04T00:29:34;0.70;99.90
7814;DHT22;3952;48.364;16.022;2023-03-04T00:32:01;0.70;99.90
7814;DHT22;3952;48.364;16.022;2023-03-04T00:34:29;0.60;99.90
7814;DHT22;3952;48.364;16.022;2023-03-04T00:36:56;0.60;99.90
7814;DHT22;3952;48.364;16.022;2023-03-04T00:39:27;0.50;99.90
7814;DHT22;3952;48.364;16.022;2023-03-04T00:41:55;0.40;99.90
7814;DHT22;3952;48.364;16.022;2023-03-04T00:44:22;0.20;99.90
7814;DHT22;3952;48.364;16.022;2023-03-04T00:46:49;0.20;99.90
7814;DHT22;3952;48.364;16.022;2023-03-04T00:49:16;0.10;99.90
7814;DHT22;3952;48.364;16.022;2023-03-04T00:51:43;0.10;99.90
7814;DHT22;3952;48.364;16.022;2023-03-04T00:54:11;0.10;99.90
7814;DHT22;3952;48.364;16.022;2023-03-04T00:56:39;0.10;99.90
7814;DHT22;3952;48.364;16.022;2023-03-04T00:59:07;0.20;99.90
7814;DHT22;3952;48.364;16.022;2023-03-04T01:01:34;0.20;99.90
7814;DHT22;3952;48.364;16.022;2023-03-04T01:04:01;0.30;99.90
7814;DHT22;3952;48.364;16.022;2023-03-04T01:06:28;0.30;99.90
7814;DHT22;3952;48.364;16.022;2023-03-04T01:08:55;0.20;99.90
7814;DHT22;3952;48.364;16.022;2023-03-04T01:11:23;0.30;99.90
7814;DHT22;3952;48.364;16.022;2023-03-04T01:13:52;0.30;99.90
7814;DHT22;3952;48.364;16.022;2023-03-04T01:16:19;0.30;99.90
7814;DHT22;3952;48.364;16.022;2023-03-04T01:18:46;0.30;99.90
7814;DHT22;3952;48.364;16.022;2023-03-04T01:21:14;0.30;99.90
7814;DHT22;3952;48.364;16.022;2023-03-04T01:23:41;0.20;99.90
7814;DHT22;3952;48.364;16.022;2023-03-04T01:26:08;0.20;99.90
7814;DHT22;3952;48.364;16.022;2023-03-04T01:28:35;0.00;99.90
7814;DHT22;3952;48.364;16.022;2023-03-04T01:31:04;0.00;99.90
7814;DHT22;3952;48.364;16.022;2023-03-04T01:33:31;0.00;99.90
7814;DHT22;3952;48.364;16.022;2023-03-04T01:35:58;0.00;99.90
7814;DHT22;3952;48.364;16.022;2023-03-04T01:38:26;0.00;99.90
7814;DHT22;3952;48.364;16.022;2023-03-04T01:40:53;-0.90;99.90
7814;DHT22;3952;48.364;16.022;2023-03-04T01:43:23;0.00;99.90
7814;DHT22;3952;48.364;16.022;2023-03-04T01:45:52;0.10;99.90
7814;DHT22;3952;48.364;16.022;2023-03-04T01:48:25;0.10;99.90
7814;DHT22;3952;48.364;16.022;2023-03-04T01:50:52;0.00;99.90
7814;DHT22;3952;48.364;16.022;2023-03-04T01:53:21;0.00;99.90
7814;DHT22;3952;48.364;16.022;2023-03-04T01:55:49;0.00;99.90
7814;DHT22;3952;48.364;16.022;2023-03-04T01:58:18;-0.10;99.90
7814;DHT22;3952;48.364;16.022;2023-03-04T02:00:45;-0.10;99.90
7814;DHT22;3952;48.364;16.022;2023-03-04T02:03:14;-0.10;99.90
7814;DHT22;3952;48.364;16.022;2023-03-04T02:05:48;-0.10;99.90
7814;DHT22;3952;48.364;16.022;2023-03-04T02:08:18;-0.10;99.90
7814;DHT22;3952;48.364;16.022;2023-03-04T02:10:46;-0.10;99.90
7814;DHT22;3952;48.364;16.022;2023-03-04T02:13:14;0.00;99.90
7814;DHT22;3952;48.364;16.022;2023-03-04T02:15:44;0.00;99.90
7814;DHT22;3952;48.364;16.022;2023-03-04T02:18:14;0.00;99.90
7814;DHT22;3952;48.364;16.022;2023-03-04T02:20:50;0.00;99.90
7814;DHT22;3952;48.364;16.022;2023-03-04T02:23:24;0.00;99.90
7814;DHT22;3952;48.364;16.022;2023-03-04T02:26:07;0.00;99.90
7814;DHT22;3952;48.364;16.022;2023-03-04T02:28:35;0.00;99.90
7814;DHT22;3952;48.364;16.022;2023-03-04T02:31:02;0.00;99.90
7814;DHT22;3952;48.364;16.022;2023-03-04T02:33:29;0.00;99.90
7814;DHT22;3952;48.364;16.022;2023-03-04T02:35:58;0.00;99.90
7814;DHT22;3952;48.364;16.022;2023-03-04T02:38:25;-0.10;99.90
7814;DHT22;3952;48.364;16.022;2023-03-04T02:40:53;-0.10;99.90
7814;DHT22;3952;48.364;16.022;2023-03-04T02:43:25;-0.10;99.90
7814;DHT22;3952;48.364;16.022;2023-03-04T02:45:52;-0.20;99.90
7814;DHT22;3952;48.364;16.022;2023-03-04T02:48:21;-0.20;99.90
7814;DHT22;3952;48.364;16.022;2023-03-04T02:50:50;-0.20;99.90
7814;DHT22;3952;48.364;16.022;2023-03-04T02:53:18;-0.20;99.90
7814;DHT22;3952;48.364;16.022;2023-03-04T02:55:46;-0.20;99.90
7814;DHT22;3952;48.364;16.022;2023-03-04T02:58:14;-0.20;99.90
7814;DHT22;3952;48.364;16.022;2023-03-04T03:00:43;-0.20;99.90
7814;DHT22;3952;48.364;16.022;2023-03-04T03:03:10;-0.30;99.90
7814;DHT22;3952;48.364;16.022;2023-03-04T03:05:38;-0.30;99.90
7814;DHT22;3952;48.364;16.022;2023-03-04T03:08:06;-0.40;99.90
7814;DHT22;3952;48.364;16.022;2023-03-04T03:10:33;-0.40;99.90
7814;DHT22;3952;48.364;16.022;2023-03-04T03:13:00;-0.40;99.90
7814;DHT22;3952;48.364;16.022;2023-03-04T03:15:27;-0.40;99.90
7814;DHT22;3952;48.364;16.022;2023-03-04T03:17:56;-0.40;99.90
7814;DHT22;3952;48.364;16.022;2023-03-04T03:20:24;-0.40;99.90
7814;DHT22;3952;48.364;16.022;2023-03-04T03:22:51;-0.40;99.90
7814;DHT22;3952;48.364;16.022;2023-03-04T03:25:18;-0.40;99.90
7814;DHT22;3952;48.364;16.022;2023-03-04T03:27:46;-0.40;99.90
7814;DHT22;3952;48.364;16.022;2023-03-04T03:30:14;-0.50;99.90
7814;DHT22;3952;48.364;16.022;2023-03-04T03:32:41;-0.50;99.90
7814;DHT22;3952;48.364;16.022;2023-03-04T03:35:10;-0.50;99.90
7814;DHT22;3952;48.364;16.022;2023-03-04T03:37:37;-0.50;99.90
7814;DHT22;3952;48.364;16.022;2023-03-04T03:40:06;-0.50;99.90
7814;DHT22;3952;48.364;16.022;2023-03-04T03:42:33;-0.50;99.90
7814;DHT22;3952;48.364;16.022;2023-03-04T03:45:00;-0.60;99.90
7814;DHT22;3952;48.364;16.022;2023-03-04T03:47:28;-0.70;99.90
7814;DHT22;3952;48.364;16.022;2023-03-04T03:49:55;-0.70;99.90
7814;DHT22;3952;48.364;16.022;2023-03-04T03:52:24;-0.80;99.90
7814;DHT22;3952;48.364;16.022;2023-03-04T03:54:51;-0.90;99.90
7814;DHT22;3952;48.364;16.022;2023-03-04T03:57:18;-0.90;99.90
7814;DHT22;3952;48.364;16.022;2023-03-04T03:59:45;-0.90;99.90
7814;DHT22;3952;48.364;16.022;2023-03-04T04:02:13;-1.00;99.90
7814;DHT22;3952;48.364;16.022;2023-03-04T04:04:40;-1.00;99.90
7814;DHT22;3952;48.364;16.022;2023-03-04T04:07:07;-1.10;99.90
7814;DHT22;3952;48.364;16.022;2023-03-04T04:09:36;-1.00;99.90
7814;DHT22;3952;48.364;16.022;2023-03-04T04:12:04;-1.00;99.90
7814;DHT22;3952;48.364;16.022;2023-03-04T04:14:32;-1.00;99.90
7814;DHT22;3952;48.364;16.022;2023-03-04T04:16:59;-1.10;99.90
7814;DHT22;3952;48.364;16.022;2023-03-04T04:19:27;-1.10;99.90
7814;DHT22;3952;48.364;16.022;2023-03-04T04:21:54;-1.00;99.90
7814;DHT22;3952;48.364;16.022;2023-03-04T04:24:21;-1.00;99.90
7814;DHT22;3952;48.364;16.022;2023-03-04T04:26:50;-1.10;99.90
7814;DHT22;3952;48.364;16.022;2023-03-04T04:29:17;-1.10;99.90
7814;DHT22;3952;48.364;16.022;2023-03-04T04:31:45;-1.10;99.90
7814;DHT22;3952;48.364;16.022;2023-03-04T04:34:12;-1.10;99.90
7814;DHT22;3952;48.364;16.022;2023-03-04T04:36:39;-1.10;99.90
7814;DHT22;3952;48.364;16.022;2023-03-04T04:39:06;-1.10;99.90
7814;DHT22;3952;48.364;16.022;2023-03-04T04:41:36;-1.20;99.90
7814;DHT22;3952;48.364;16.022;2023-03-04T04:44:05;-1.20;99.90
7814;DHT22;3952;48.364;16.022;2023-03-04T04:46:34;-1.20;99.90
7814;DHT22;3952;48.364;16.022;2023-03-04T04:49:01;-1.30;99.90
7814;DHT22;3952;48.364;16.022;2023-03-04T04:51:29;-1.20;99.90
7814;DHT22;3952;48.364;16.022;2023-03-04T04:53:58;-1.20;99.90
7814;DHT22;3952;48.364;16.022;2023-03-04T04:56:26;-1.20;99.90
7814;DHT22;3952;48.364;16.022;2023-03-04T04:58:55;-1.20;99.90
7814;DHT22;3952;48.364;16.022;2023-03-04T05:01:24;-1.20;99.90
7814;DHT22;3952;48.364;16.022;2023-03-04T05:03:52;-1.20;99.90
7814;DHT22;3952;48.364;16.022;2023-03-04T05:06:20;-1.20;99.90
7814;DHT22;3952;48.364;16.022;2023-03-04T05:08:48;-1.20;99.90
7814;DHT22;3952;48.364;16.022;2023-03-04T05:11:16;-1.20;99.90
7814;DHT22;3952;48.364;16.022;2023-03-04T05:13:44;-1.20;99.90
7814;DHT22;3952;48.364;16.022;2023-03-04T05:16:11;-1.20;99.90
7814;DHT22;3952;48.364;16.022;2023-03-04T05:18:40;-1.20;99.90
7814;DHT22;3952;48.364;16.022;2023-03-04T05:21:07;-1.20;99.90
7814;DHT22;3952;48.364;16.022;2023-03-04T05:23:36;-1.30;99.90
7814;DHT22;3952;48.364;16.022;2023-03-04T05:26:05;-1.30;99.90
7814;DHT22;3952;48.364;16.022;2023-03-04T05:28:32;-1.30;99.90
7814;DHT22;3952;48.364;16.022;2023-03-04T05:30:59;-1.20;99.90
7814;DHT22;3952;48.364;16.022;2023-03-04T05:33:27;-1.20;99.90
7814;DHT22;3952;48.364;16.022;2023-03-04T05:35:56;-1.20;99.90
7814;DHT22;3952;48.364;16.022;2023-03-04T05:38:24;-1.20;99.90
7814;DHT22;3952;48.364;16.022;2023-03-04T05:40:56;-1.20;99.90
7814;DHT22;3952;48.364;16.022;2023-03-04T05:43:24;-1.20;99.90
7814;DHT22;3952;48.364;16.022;2023-03-04T05:45:53;-1.20;99.90
7814;DHT22;3952;48.364;16.022;2023-03-04T05:48:21;-1.20;99.90
7814;DHT22;3952;48.364;16.022;2023-03-04T05:50:52;-1.20;99.90
7814;DHT22;3952;48.364;16.022;2023-03-04T05:53:22;-1.30;99.90
7814;DHT22;3952;48.364;16.022;2023-03-04T05:55:50;-1.30;99.90
7814;DHT22;3952;48.364;16.022;2023-03-04T05:58:17;-1.30;99.90
7814;DHT22;3952;48.364;16.022;2023-03-04T06:00:45;-1.30;99.90
7814;DHT22;3952;48.364;16.022;2023-03-04T06:03:14;-1.20;99.90
7814;DHT22;3952;48.364;16.022;2023-03-04T06:05:42;-1.20;99.90
7814;DHT22;3952;48.364;16.022;2023-03-04T06:08:09;-1.20;99.90
7814;DHT22;3952;48.364;16.022;2023-03-04T06:10:39;-1.10;99.90
7814;DHT22;3952;48.364;16.022;2023-03-04T06:13:08;-1.10;99.90
7814;DHT22;3952;48.364;16.022;2023-03-04T06:15:36;-1.10;99.90
7814;DHT22;3952;48.364;16.022;2023-03-04T06:18:04;-1.10;99.90
7814;DHT22;3952;48.364;16.022;2023-03-04T06:20:31;-1.10;99.90
7814;DHT22;3952;48.364;16.022;2023-03-04T06:22:58;-1.00;99.90
7814;DHT22;3952;48.364;16.022;2023-03-04T06:25:26;-1.00;99.90
7814;DHT22;3952;48.364;16.022;2023-03-04T06:27:54;-0.90;99.90
7814;DHT22;3952;48.364;16.022;2023-03-04T06:30:22;-0.90;99.90
7814;DHT22;3952;48.364;16.022;2023-03-04T06:32:49;-0.90;99.90
7814;DHT22;3952;48.364;16.022;2023-03-04T06:35:16;-0.80;99.90
7814;DHT22;3952;48.364;16.022;2023-03-04T06:37:44;-0.70;99.90
7814;DHT22;3952;48.364;16.022;2023-03-04T06:40:11;-0.60;99.90
7814;DHT22;3952;48.364;16.022;2023-03-04T06:42:39;-0.50;99.90
7814;DHT22;3952;48.364;16.022;2023-03-04T06:45:09;-0.40;99.90
7814;DHT22;3952;48.364;16.022;2023-03-04T06:47:36;-0.30;99.90
7814;DHT22;3952;48.364;16.022;2023-03-04T06:50:04;-0.20;99.90
7814;DHT22;3952;48.364;16.022;2023-03-04T06:52:32;-0.10;99.90
7814;DHT22;3952;48.364;16.022;2023-03-04T06:54:59;0.00;99.90
7814;DHT22;3952;48.364;16.022;2023-03-04T06:57:26;0.20;99.90
7814;DHT22;3952;48.364;16.022;2023-03-04T06:59:53;0.30;99.90
7814;DHT22;3952;48.364;16.022;2023-03-04T07:02:22;0.70;99.90
7814;DHT22;3952;48.364;16.022;2023-03-04T07:04:50;1.20;99.90
7814;DHT22;3952;48.364;16.022;2023-03-04T07:07:20;1.70;99.90
7814;DHT22;3952;48.364;16.022;2023-03-04T07:09:47;2.30;99.90
7814;DHT22;3952;48.364;16.022;2023-03-04T07:12:17;3.10;99.90
7814;DHT22;3952;48.364;16.022;2023-03-04T07:14:44;4.00;99.90
7814;DHT22;3952;48.364;16.022;2023-03-04T07:17:11;4.80;99.90
7814;DHT22;3952;48.364;16.022;2023-03-04T07:19:43;5.30;99.90
7814;DHT22;3952;48.364;16.022;2023-03-04T07:22:10;5.80;99.90
7814;DHT22;3952;48.364;16.022;2023-03-04T07:24:37;5.90;99.90
7814;DHT22;3952;48.364;16.022;2023-03-04T07:27:05;6.00;99.90
7814;DHT22;3952;48.364;16.022;2023-03-04T07:29:32;6.10;99.90
7814;DHT22;3952;48.364;16.022;2023-03-04T07:31:59;6.10;99.90
7814;DHT22;3952;48.364;16.022;2023-03-04T07:34:27;6.20;99.90
7814;DHT22;3952;48.364;16.022;2023-03-04T07:37:04;6.50;99.90
7814;DHT22;3952;48.364;16.022;2023-03-04T07:39:31;7.00;99.90
7814;DHT22;3952;48.364;16.022;2023-03-04T07:41:59;7.40;99.90
7814;DHT22;3952;48.364;16.022;2023-03-04T07:44:26;8.00;99.90
7814;DHT22;3952;48.364;16.022;2023-03-04T07:46:53;8.50;99.90
7814;DHT22;3952;48.364;16.022;2023-03-04T07:49:21;8.70;99.90
7814;DHT22;3952;48.364;16.022;2023-03-04T07:51:48;8.90;99.90
7814;DHT22;3952;48.364;16.022;2023-03-04T07:54:16;9.20;99.90
7814;DHT22;3952;48.364;16.022;2023-03-04T07:56:45;9.40;99.90
7814;DHT22;3952;48.364;16.022;2023-03-04T07:59:12;9.40;99.90
7814;DHT22;3952;48.364;16.022;2023-03-04T08:01:39;9.50;99.90
7814;DHT22;3952;48.364;16.022;2023-03-04T08:04:07;9.50;99.90
7814;DHT22;3952;48.364;16.022;2023-03-04T08:06:34;9.10;99.90
7814;DHT22;3952;48.364;16.022;2023-03-04T08:09:03;9.00;99.90
7814;DHT22;3952;48.364;16.022;2023-03-04T08:11:34;9.20;99.90
7814;DHT22;3952;48.364;16.022;2023-03-04T08:14:02;9.50;99.90
7814;DHT22;3952;48.364;16.022;2023-03-04T08:16:29;9.80;99.90
7814;DHT22;3952;48.364;16.022;2023-03-04T08:18:58;10.20;99.90
7814;DHT22;3952;48.364;16.022;2023-03-04T08:21:26;10.60;99.90
7814;DHT22;3952;48.364;16.022;2023-03-04T08:23:53;11.20;99.90
7814;DHT22;3952;48.364;16.022;2023-03-04T08:26:23;11.20;99.90
7814;DHT22;3952;48.364;16.022;2023-03-04T08:28:54;11.30;99.90
7814;DHT22;3952;48.364;16.022;2023-03-04T08:31:22;11.30;99.90
7814;DHT22;3952;48.364;16.022;2023-03-04T08:33:49;11.60;99.90
7814;DHT22;3952;48.364;16.022;2023-03-04T08:36:17;11.60;99.90
7814;DHT22;3952;48.364;16.022;2023-03-04T08:38:44;11.50;99.90
7814;DHT22;3952;48.364;16.022;2023-03-04T08:41:12;11.60;99.90
7814;DHT22;3952;48.364;16.022;2023-03-04T08:43:40;11.80;99.90
7814;DHT22;3952;48.364;16.022;2023-03-04T08:46:09;11.80;99.90
7814;DHT22;3952;48.364;16.022;2023-03-04T08:48:36;11.80;99.90
7814;DHT22;3952;48.364;16.022;2023-03-04T08:51:07;11.60;99.90
7814;DHT22;3952;48.364;16.022;2023-03-04T08:53:35;11.40;99.90
7814;DHT22;3952;48.364;16.022;2023-03-04T08:56:02;11.60;99.90
7814;DHT22;3952;48.364;16.022;2023-03-04T08:58:30;11.70;99.90
7814;DHT22;3952;48.364;16.022;2023-03-04T09:00:58;11.60;99.90
7814;DHT22;3952;48.364;16.022;2023-03-04T09:03:27;11.30;99.90
7814;DHT22;3952;48.364;16.022;2023-03-04T09:05:54;11.00;99.90
7814;DHT22;3952;48.364;16.022;2023-03-04T09:08:22;11.10;99.90
7814;DHT22;3952;48.364;16.022;2023-03-04T09:10:52;11.10;99.90
7814;DHT22;3952;48.364;16.022;2023-03-04T09:13:19;11.00;99.90
7814;DHT22;3952;48.364;16.022;2023-03-04T09:15:48;11.10;99.90
7814;DHT22;3952;48.364;16.022;2023-03-04T09:18:16;11.10;99.90
7814;DHT22;3952;48.364;16.022;2023-03-04T09:20:46;11.30;99.90
7814;DHT22;3952;48.364;16.022;2023-03-04T09:23:13;11.30;99.90
7814;DHT22;3952;48.364;16.022;2023-03-04T09:25:42;11.40;99.90
7814;DHT22;3952;48.364;16.022;2023-03-04T09:28:09;11.70;99.90
7814;DHT22;3952;48.364;16.022;2023-03-04T09:30:37;11.90;99.90
7814;DHT22;3952;48.364;16.022;2023-03-04T09:33:04;11.90;99.90
7814;DHT22;3952;48.364;16.022;2023-03-04T09:35:32;11.90;99.90
7814;DHT22;3952;48.364;16.022;2023-03-04T09:38:00;11.80;99.90
7814;DHT22;3952;48.364;16.022;2023-03-04T09:40:30;11.90;99.90
7814;DHT22;3952;48.364;16.022;2023-03-04T09:43:00;12.00;99.90
7814;DHT22;3952;48.364;16.022;2023-03-04T09:45:33;12.20;99.90
7814;DHT22;3952;48.364;16.022;2023-03-04T09:48:01;12.40;99.90
7814;DHT22;3952;48.364;16.022;2023-03-04T09:50:31;12.60;98.50
7814;DHT22;3952;48.364;16.022;2023-03-04T09:53:19;12.60;97.80
7814;DHT22;3952;48.364;16.022;2023-03-04T09:55:50;12.40;98.30
7814;DHT22;3952;48.364;16.022;2023-03-04T09:58:27;12.40;98.00
7814;DHT22;3952;48.364;16.022;2023-03-04T10:01:02;12.40;97.30
7814;DHT22;3952;48.364;16.022;2023-03-04T10:03:39;12.20;96.50
7814;DHT22;3952;48.364;16.022;2023-03-04T10:06:12;11.90;96.70
7814;DHT22;3952;48.364;16.022;2023-03-04T10:08:53;11.80;97.10
7814;DHT22;3952;48.364;16.022;2023-03-04T10:11:24;12.00;96.50
7814;DHT22;3952;48.364;16.022;2023-03-04T10:13:59;11.90;96.00
7814;DHT22;3952;48.364;16.022;2023-03-04T10:16:32;11.90;96.40
7814;DHT22;3952;48.364;16.022;2023-03-04T10:19:13;12.10;95.90
7814;DHT22;3952;48.364;16.022;2023-03-04T10:21:46;12.00;95.70
7814;DHT22;3952;48.364;16.022;2023-03-04T10:24:17;12.10;96.60
7814;DHT22;3952;48.364;16.022;2023-03-04T10:26:46;12.20;95.40
7814;DHT22;3952;48.364;16.022;2023-03-04T10:29:15;12.30;94.90
7814;DHT22;3952;48.364;16.022;2023-03-04T10:31:43;12.30;94.50
7814;DHT22;3952;48.364;16.022;2023-03-04T10:34:12;12.30;94.80
7814;DHT22;3952;48.364;16.022;2023-03-04T10:36:52;12.40;94.10
7814;DHT22;3952;48.364;16.022;2023-03-04T10:39:25;12.40;95.30
7814;DHT22;3952;48.364;16.022;2023-03-04T10:41:55;12.60;94.50
7814;DHT22;3952;48.364;16.022;2023-03-04T10:44:23;12.60;94.20
7814;DHT22;3952;48.364;16.022;2023-03-04T10:46:53;12.50;94.50
7814;DHT22;3952;48.364;16.022;2023-03-04T10:49:21;12.50;95.00
7814;DHT22;3952;48.364;16.022;2023-03-04T10:51:51;12.80;95.20
7814;DHT22;3952;48.364;16.022;2023-03-04T10:54:26;12.70;94.80
7814;DHT22;3952;48.364;16.022;2023-03-04T10:57:04;12.60;94.20
7814;DHT22;3952;48.364;16.022;2023-03-04T10:59:41;12.50;95.20
7814;DHT22;3952;48.364;16.022;2023-03-04T11:02:18;12.60;95.40
7814;DHT22;3952;48.364;16.022;2023-03-04T11:04:53;12.70;95.60
7814;DHT22;3952;48.364;16.022;2023-03-04T11:07:23;12.70;95.20
7814;DHT22;3952;48.364;16.022;2023-03-04T11:09:52;12.70;95.80
7814;DHT22;3952;48.364;16.022;2023-03-04T11:12:21;12.60;95.30
7814;DHT22;3952;48.364;16.022;2023-03-04T11:14:57;12.70;95.30
7814;DHT22;3952;48.364;16.022;2023-03-04T11:17:26;12.70;95.30
7814;DHT22;3952;48.364;16.022;2023-03-04T11:19:56;12.90;96.50
7814;DHT22;3952;48.364;16.022;2023-03-04T11:22:26;12.90;94.80
7814;DHT22;3952;48.364;16.022;2023-03-04T11:24:58;12.90;94.30
7814;DHT22;3952;48.364;16.022;2023-03-04T11:27:35;12.90;94.00
7814;DHT22;3952;48.364;16.022;2023-03-04T11:30:18;12.90;93.50
7814;DHT22;3952;48.364;16.022;2023-03-04T11:32:49;12.70;92.80
7814;DHT22;3952;48.364;16.022;2023-03-04T11:35:23;12.60;93.70
7814;DHT22;3952;48.364;16.022;2023-03-04T11:37:57;12.50;93.50
7814;DHT22;3952;48.364;16.022;2023-03-04T11:40:35;12.60;93.10
7814;DHT22;3952;48.364;16.022;2023-03-04T11:43:10;12.70;93.60
7814;DHT22;3952;48.364;16.022;2023-03-04T11:48:49;12.70;93.10
7814;DHT22;3952;48.364;16.022;2023-03-04T11:51:24;12.80;93.60
7814;DHT22;3952;48.364;16.022;2023-03-04T11:54:16;12.90;93.90
7814;DHT22;3952;48.364;16.022;2023-03-04T11:56:50;13.00;91.90
7814;DHT22;3952;48.364;16.022;2023-03-04T11:59:42;12.90;92.20
7814;DHT22;3952;48.364;16.022;2023-03-04T12:02:15;13.00;91.90
7814;DHT22;3952;48.364;16.022;2023-03-04T12:05:11;13.10;91.40
7814;DHT22;3952;48.364;16.022;2023-03-04T12:08:16;13.10;91.30
7814;DHT22;3952;48.364;16.022;2023-03-04T12:10:51;12.80;90.80
7814;DHT22;3952;48.364;16.022;2023-03-04T12:13:44;12.70;91.20
7814;DHT22;3952;48.364;16.022;2023-03-04T12:19:28;12.80;91.60
7814;DHT22;3952;48.364;16.022;2023-03-04T12:22:11;12.80;91.10
7814;DHT22;3952;48.364;16.022;2023-03-04T12:25:11;12.80;91.40
7814;DHT22;3952;48.364;16.022;2023-03-04T12:27:45;12.90;90.90
7814;DHT22;3952;48.364;16.022;2023-03-04T12:30:32;13.00;91.70
7814;DHT22;3952;48.364;16.022;2023-03-04T12:33:10;13.10;91.10
7814;DHT22;3952;48.364;16.022;2023-03-04T12:35:45;13.10;90.50
7814;DHT22;3952;48.364;16.022;2023-03-04T12:38:27;13.10;90.60
7814;DHT22;3952;48.364;16.022;2023-03-04T12:41:02;13.10;90.80
7814;DHT22;3952;48.364;16.022;2023-03-04T12:43:42;13.60;90.80
7814;DHT22;3952;48.364;16.022;2023-03-04T12:46:35;13.10;89.50
7814;DHT22;3952;48.364;16.022;2023-03-04T12:49:29;12.80;90.50
7814;DHT22;3952;48.364;16.022;2023-03-04T12:52:05;12.80;90.70
7814;DHT22;3952;48.364;16.022;2023-03-04T12:54:38;12.80;90.50
7814;DHT22;3952;48.364;16.022;2023-03-04T12:57:10;12.80;90.90
7814;DHT22;3952;48.364;16.022;2023-03-04T12:59:43;12.80;89.60
7814;DHT22;3952;48.364;16.022;2023-03-04T13:02:34;12.70;89.90
7814;DHT22;3952;48.364;16.022;2023-03-04T13:14:34;12.80;89.60
7814;DHT22;3952;48.364;16.022;2023-03-04T13:17:37;12.80;90.90
7814;DHT22;3952;48.364;16.022;2023-03-04T13:20:18;12.80;89.90
7814;DHT22;3952;48.364;16.022;2023-03-04T13:22:53;12.70;90.10
7814;DHT22;3952;48.364;16.022;2023-03-04T13:25:33;12.70;90.00
7814;DHT22;3952;48.364;16.022;2023-03-04T13:28:26;12.60;89.10
7814;DHT22;3952;48.364;16.022;2023-03-04T13:34:00;12.50;89.50
7814;DHT22;3952;48.364;16.022;2023-03-04T13:36:50;12.50;90.10
7814;DHT22;3952;48.364;16.022;2023-03-04T13:39:35;12.40;90.20
7814;DHT22;3952;48.364;16.022;2023-03-04T13:42:04;12.40;90.60
7814;DHT22;3952;48.364;16.022;2023-03-04T13:44:57;12.30;90.60
7814;DHT22;3952;48.364;16.022;2023-03-04T13:47:43;12.30;90.90
7814;DHT22;3952;48.364;16.022;2023-03-04T13:50:33;12.30;90.60
7814;DHT22;3952;48.364;16.022;2023-03-04T14:02:02;12.10;91.10
7814;DHT22;3952;48.364;16.022;2023-03-04T14:04:33;12.20;90.80
7814;DHT22;3952;48.364;16.022;2023-03-04T14:07:15;12.20;90.60
7814;DHT22;3952;48.364;16.022;2023-03-04T14:09:57;12.30;90.90
7814;DHT22;3952;48.364;16.022;2023-03-04T14:12:27;12.20;90.70
7814;DHT22;3952;48.364;16.022;2023-03-04T14:14:57;12.10;90.70
7814;DHT22;3952;48.364;16.022;2023-03-04T14:17:28;12.00;90.60
7814;DHT22;3952;48.364;16.022;2023-03-04T14:19:57;12.00;90.90
7814;DHT22;3952;48.364;16.022;2023-03-04T14:22:29;12.00;91.30
7814;DHT22;3952;48.364;16.022;2023-03-04T14:24:59;11.90;90.70
7814;DHT22;3952;48.364;16.022;2023-03-04T14:27:28;11.50;90.60
7814;DHT22;3952;48.364;16.022;2023-03-04T14:29:56;11.10;91.20
7814;DHT22;3952;48.364;16.022;2023-03-04T14:32:24;10.70;92.20
7814;DHT22;3952;48.364;16.022;2023-03-04T14:34:56;10.40;92.40
7814;DHT22;3952;48.364;16.022;2023-03-04T14:37:28;10.10;92.60
7814;DHT22;3952;48.364;16.022;2023-03-04T14:39:59;8.60;93.10
7814;DHT22;3952;48.364;16.022;2023-03-04T14:42:35;9.90;93.60
7814;DHT22;3952;48.364;16.022;2023-03-04T14:45:05;9.70;93.50
7814;DHT22;3952;48.364;16.022;2023-03-04T14:47:35;9.50;94.30
7814;DHT22;3952;48.364;16.022;2023-03-04T14:50:05;9.50;94.40
7814;DHT22;3952;48.364;16.022;2023-03-04T14:52:36;9.40;94.10
7814;DHT22;3952;48.364;16.022;2023-03-04T14:55:23;9.30;94.70
7814;DHT22;3952;48.364;16.022;2023-03-04T14:57:51;9.20;94.70
7814;DHT22;3952;48.364;16.022;2023-03-04T15:00:29;9.00;94.90
7814;DHT22;3952;48.364;16.022;2023-03-04T15:02:59;9.20;95.10
7814;DHT22;3952;48.364;16.022;2023-03-04T15:05:28;9.20;95.10
7814;DHT22;3952;48.364;16.022;2023-03-04T15:07:58;9.10;95.00
7814;DHT22;3952;48.364;16.022;2023-03-04T15:10:28;9.10;95.40
7814;DHT22;3952;48.364;16.022;2023-03-04T15:12:58;7.70;94.70
7814;DHT22;3952;48.364;16.022;2023-03-04T15:15:33;9.10;95.40
7814;DHT22;3952;48.364;16.022;2023-03-04T15:18:02;9.10;95.70
7814;DHT22;3952;48.364;16.022;2023-03-04T15:20:31;9.10;95.30
7814;DHT22;3952;48.364;16.022;2023-03-04T15:23:02;9.10;95.50
7814;DHT22;3952;48.364;16.022;2023-03-04T15:25:32;9.20;95.60
7814;DHT22;3952;48.364;16.022;2023-03-04T15:28:00;9.20;95.50
7814;DHT22;3952;48.364;16.022;2023-03-04T15:30:30;9.20;95.70
7814;DHT22;3952;48.364;16.022;2023-03-04T15:32:58;9.20;95.60
7814;DHT22;3952;48.364;16.022;2023-03-04T15:35:28;9.20;95.60
7814;DHT22;3952;48.364;16.022;2023-03-04T15:37:56;9.20;95.70
7814;DHT22;3952;48.364;16.022;2023-03-04T15:40:28;9.10;95.90
7814;DHT22;3952;48.364;16.022;2023-03-04T15:42:58;9.30;96.10
7814;DHT22;3952;48.364;16.022;2023-03-04T15:45:28;9.10;96.20
7814;DHT22;3952;48.364;16.022;2023-03-04T15:47:55;9.00;96.20
7814;DHT22;3952;48.364;16.022;2023-03-04T15:50:27;8.90;96.10
7814;DHT22;3952;48.364;16.022;2023-03-04T15:52:57;8.80;96.20
7814;DHT22;3952;48.364;16.022;2023-03-04T15:55:29;8.70;96.60
7814;DHT22;3952;48.364;16.022;2023-03-04T15:57:58;8.60;96.60
7814;DHT22;3952;48.364;16.022;2023-03-04T16:00:26;8.50;96.90
7814;DHT22;3952;48.364;16.022;2023-03-04T16:02:53;8.50;97.30
7814;DHT22;3952;48.364;16.022;2023-03-04T16:05:20;9.00;97.60
7814;DHT22;3952;48.364;16.022;2023-03-04T16:07:49;8.20;97.70
7814;DHT22;3952;48.364;16.022;2023-03-04T16:10:20;8.10;97.90
7814;DHT22;3952;48.364;16.022;2023-03-04T16:12:50;8.00;97.60
7814;DHT22;3952;48.364;16.022;2023-03-04T16:15:20;7.90;97.80
7814;DHT22;3952;48.364;16.022;2023-03-04T16:17:47;7.70;98.20
7814;DHT22;3952;48.364;16.022;2023-03-04T16:20:17;7.70;98.60
7814;DHT22;3952;48.364;16.022;2023-03-04T16:22:47;7.70;98.80
7814;DHT22;3952;48.364;16.022;2023-03-04T16:25:16;7.60;99.10
7814;DHT22;3952;48.364;16.022;2023-03-04T16:27:44;7.50;99.10
7814;DHT22;3952;48.364;16.022;2023-03-04T16:30:15;7.40;99.20
7814;DHT22;3952;48.364;16.022;2023-03-04T16:32:43;7.40;99.40
7814;DHT22;3952;48.364;16.022;2023-03-04T16:35:11;7.30;99.70
7814;DHT22;3952;48.364;16.022;2023-03-04T16:37:38;7.30;99.90
7814;DHT22;3952;48.364;16.022;2023-03-04T16:40:10;7.30;99.90